KTLH/TLH METAR and TAF weather

Enter ICAO airport designator
Station Type Date Time Source
KTLH METAR 2020/07/08 01:53 UTC NOAA

KTLH 080153Z 26006KT 10SM FEW090 26/24 A2998 RMK AO2 SLP150 T02610244


Station Type Date Time Source
KTLH Decoded METAR 2020/07/08 01:53 UTC NOAA

TALLAHASSEE REGIONAL AIRPORT , FL, United States (KTLH) 30-24N 84-21W 16M
Jul 07, 2020 - 09:53 PM EDT / 2020.07.08 0153 UTC
Wind: from the W (260 degrees) at 7 MPH (6 KT):0
Visibility: 10 mile(s):0
Sky conditions: mostly clear
Temperature: 79.0 F (26.1 C)
Dew Point: 75.9 F (24.4 C)
Relative Humidity: 90%
Pressure (altimeter): 29.98 in. Hg (1015 hPa)
ob: KTLH 080153Z 26006KT 10SM FEW090 26/24 A2998 RMK AO2 SLP150 T02610244
cycle: 2

Station Type Date Time Source
KTLH TAF 2020/07/07 21:59 UTC NOAA

TAF
AMD KTLH 072059Z 0721/0818 23008KT P6SM -TSRA BKN050CB
FM072200 26005KT P6SM -SHRA BKN050
FM080000 24005KT P6SM OVC120
FM081500 30012KT P6SM BKN050

Example: see airport list